sensor_id;sensor_type;location;lat;lon;timestamp;pressure;altitude;pressure_sealevel;temperature;humidity
18850;BME280;4989;48.772;9.154;2023-05-09T00:04:55;98276.66;;;15.72;100.00
18850;BME280;4989;48.772;9.154;2023-05-09T00:09:58;98273.09;;;15.94;100.00
18850;BME280;4989;48.772;9.154;2023-05-09T00:15:00;98268.88;;;16.02;100.00
18850;BME280;4989;48.772;9.154;2023-05-09T00:20:03;98264.22;;;16.21;100.00
18850;BME280;4989;48.772;9.154;2023-05-09T00:25:10;98252.78;;;16.13;100.00
18850;BME280;4989;48.772;9.154;2023-05-09T00:30:13;98249.28;;;16.13;100.00
18850;BME280;4989;48.772;9.154;2023-05-09T00:35:16;98244.78;;;16.37;100.00
18850;BME280;4989;48.772;9.154;2023-05-09T00:40:18;98251.94;;;16.35;100.00
18850;BME280;4989;48.772;9.154;2023-05-09T00:45:21;98237.47;;;16.34;100.00
18850;BME280;4989;48.772;9.154;2023-05-09T00:50:23;98228.00;;;16.44;100.00
18850;BME280;4989;48.772;9.154;2023-05-09T00:55:26;98226.50;;;16.43;100.00
18850;BME280;4989;48.772;9.154;2023-05-09T01:00:28;98217.34;;;16.37;100.00
18850;BME280;4989;48.772;9.154;2023-05-09T01:06:10;98218.72;;;15.83;100.00
18850;BME280;4989;48.772;9.154;2023-05-09T01:11:40;98208.84;;;15.95;100.00
18850;BME280;4989;48.772;9.154;2023-05-09T01:17:12;98216.69;;;15.74;100.00
18850;BME280;4989;48.772;9.154;2023-05-09T01:22:19;98206.84;;;15.86;100.00
18850;BME280;4989;48.772;9.154;2023-05-09T01:27:50;98206.84;;;15.86;100.00
18850;BME280;4989;48.772;9.154;2023-05-09T01:32:59;98214.63;;;15.66;100.00
18850;BME280;4989;48.772;9.154;2023-05-09T01:38:11;98203.97;;;15.58;100.00
18850;BME280;4989;48.772;9.154;2023-05-09T01:43:16;98202.91;;;15.65;100.00
18850;BME280;4989;48.772;9.154;2023-05-09T01:48:22;98197.59;;;15.62;100.00
18850;BME280;4989;48.772;9.154;2023-05-09T01:53:28;98195.09;;;15.54;100.00
18850;BME280;4989;48.772;9.154;2023-05-09T01:58:33;98200.53;;;15.45;100.00
18850;BME280;4989;48.772;9.154;2023-05-09T02:03:38;98182.56;;;15.44;100.00
18850;BME280;4989;48.772;9.154;2023-05-09T02:08:42;98191.78;;;15.28;100.00
18850;BME280;4989;48.772;9.154;2023-05-09T02:13:45;98196.13;;;15.17;100.00
18850;BME280;4989;48.772;9.154;2023-05-09T02:18:47;98201.72;;;15.35;100.00
18850;BME280;4989;48.772;9.154;2023-05-09T02:23:49;98205.47;;;15.28;100.00
18850;BME280;4989;48.772;9.154;2023-05-09T02:28:53;98204.59;;;15.63;100.00
18850;BME280;4989;48.772;9.154;2023-05-09T02:33:57;98185.78;;;15.21;100.00
18850;BME280;4989;48.772;9.154;2023-05-09T02:39:00;98190.72;;;15.04;100.00
18850;BME280;4989;48.772;9.154;2023-05-09T02:44:03;98185.81;;;14.99;100.00
18850;BME280;4989;48.772;9.154;2023-05-09T02:49:06;98177.63;;;15.30;100.00
18850;BME280;4989;48.772;9.154;2023-05-09T02:54:08;98172.75;;;15.56;100.00
18850;BME280;4989;48.772;9.154;2023-05-09T02:59:10;98171.94;;;15.46;100.00
18850;BME280;4989;48.772;9.154;2023-05-09T03:04:13;98154.72;;;15.46;100.00
18850;BME280;4989;48.772;9.154;2023-05-09T03:09:15;98154.00;;;15.54;100.00
18850;BME280;4989;48.772;9.154;2023-05-09T03:14:18;98157.13;;;15.34;100.00
18850;BME280;4989;48.772;9.154;2023-05-09T03:19:21;98159.91;;;15.44;100.00
18850;BME280;4989;48.772;9.154;2023-05-09T03:24:25;98150.00;;;15.37;100.00
18850;BME280;4989;48.772;9.154;2023-05-09T03:29:29;98153.63;;;15.34;100.00
18850;BME280;4989;48.772;9.154;2023-05-09T03:34:31;98145.63;;;15.18;100.00
18850;BME280;4989;48.772;9.154;2023-05-09T03:39:35;98141.38;;;15.17;100.00
18850;BME280;4989;48.772;9.154;2023-05-09T03:44:37;98138.53;;;15.29;100.00
18850;BME280;4989;48.772;9.154;2023-05-09T03:49:39;98141.78;;;15.15;100.00
18850;BME280;4989;48.772;9.154;2023-05-09T03:54:44;98138.06;;;15.00;100.00
18850;BME280;4989;48.772;9.154;2023-05-09T03:59:47;98137.25;;;14.90;100.00
18850;BME280;4989;48.772;9.154;2023-05-09T04:04:50;98142.28;;;14.70;100.00
18850;BME280;4989;48.772;9.154;2023-05-09T04:09:56;98133.16;;;14.73;100.00
18850;BME280;4989;48.772;9.154;2023-05-09T04:14:58;98133.22;;;14.82;100.00
18850;BME280;4989;48.772;9.154;2023-05-09T04:20:01;98131.91;;;14.86;100.00
18850;BME280;4989;48.772;9.154;2023-05-09T04:25:04;98126.09;;;14.84;100.00
18850;BME280;4989;48.772;9.154;2023-05-09T04:30:08;98136.78;;;15.14;100.00
18850;BME280;4989;48.772;9.154;2023-05-09T04:35:12;98134.34;;;15.16;100.00
18850;BME280;4989;48.772;9.154;2023-05-09T04:40:19;98137.41;;;15.18;100.00
18850;BME280;4989;48.772;9.154;2023-05-09T04:45:30;98140.38;;;15.01;100.00
18850;BME280;4989;48.772;9.154;2023-05-09T04:50:34;98140.25;;;14.83;100.00
18850;BME280;4989;48.772;9.154;2023-05-09T04:55:37;98151.00;;;15.30;100.00
18850;BME280;4989;48.772;9.154;2023-05-09T05:00:39;98139.72;;;14.97;100.00
18850;BME280;4989;48.772;9.154;2023-05-09T05:05:43;98144.41;;;15.19;100.00
18850;BME280;4989;48.772;9.154;2023-05-09T05:10:45;98136.41;;;15.33;100.00
18850;BME280;4989;48.772;9.154;2023-05-09T05:15:51;98132.97;;;15.51;100.00
18850;BME280;4989;48.772;9.154;2023-05-09T05:20:55;98130.03;;;15.68;100.00
18850;BME280;4989;48.772;9.154;2023-05-09T05:25:59;98135.59;;;15.95;100.00
18850;BME280;4989;48.772;9.154;2023-05-09T05:31:02;98137.81;;;15.69;100.00
18850;BME280;4989;48.772;9.154;2023-05-09T05:36:06;98118.84;;;15.53;100.00
18850;BME280;4989;48.772;9.154;2023-05-09T05:41:09;98116.13;;;15.62;100.00
18850;BME280;4989;48.772;9.154;2023-05-09T05:46:14;98127.59;;;15.70;100.00
18850;BME280;4989;48.772;9.154;2023-05-09T05:51:17;98112.47;;;16.15;100.00
18850;BME280;4989;48.772;9.154;2023-05-09T05:56:20;98122.06;;;16.19;100.00
18850;BME280;4989;48.772;9.154;2023-05-09T06:01:24;98118.09;;;16.30;100.00
18850;BME280;4989;48.772;9.154;2023-05-09T06:06:26;98111.25;;;16.16;100.00
18850;BME280;4989;48.772;9.154;2023-05-09T06:11:29;98111.41;;;16.31;100.00
18850;BME280;4989;48.772;9.154;2023-05-09T06:16:33;98101.34;;;16.55;100.00
18850;BME280;4989;48.772;9.154;2023-05-09T06:21:35;98106.81;;;16.74;100.00
18850;BME280;4989;48.772;9.154;2023-05-09T06:26:37;98105.72;;;16.07;100.00
18850;BME280;4989;48.772;9.154;2023-05-09T06:31:40;98100.91;;;16.29;100.00
18850;BME280;4989;48.772;9.154;2023-05-09T06:36:42;98099.06;;;16.54;100.00
18850;BME280;4989;48.772;9.154;2023-05-09T06:41:44;98092.31;;;16.73;100.00
18850;BME280;4989;48.772;9.154;2023-05-09T06:46:56;98092.19;;;16.77;100.00
18850;BME280;4989;48.772;9.154;2023-05-09T06:51:58;98083.84;;;16.34;100.00
18850;BME280;4989;48.772;9.154;2023-05-09T06:57:01;98083.78;;;15.88;100.00
18850;BME280;4989;48.772;9.154;2023-05-09T07:02:03;98078.47;;;15.94;100.00
18850;BME280;4989;48.772;9.154;2023-05-09T07:07:05;98072.53;;;16.05;100.00
18850;BME280;4989;48.772;9.154;2023-05-09T07:12:08;98069.59;;;16.82;100.00
18850;BME280;4989;48.772;9.154;2023-05-09T07:17:10;98063.31;;;17.66;100.00
18850;BME280;4989;48.772;9.154;2023-05-09T07:22:23;98055.19;;;17.72;100.00
18850;BME280;4989;48.772;9.154;2023-05-09T07:27:26;98047.25;;;18.66;100.00
18850;BME280;4989;48.772;9.154;2023-05-09T07:32:28;98037.25;;;18.54;100.00
18850;BME280;4989;48.772;9.154;2023-05-09T07:37:31;98024.06;;;18.88;100.00
18850;BME280;4989;48.772;9.154;2023-05-09T07:42:33;98016.00;;;18.99;100.00
18850;BME280;4989;48.772;9.154;2023-05-09T07:47:35;98007.72;;;18.99;100.00
18850;BME280;4989;48.772;9.154;2023-05-09T07:52:37;97994.66;;;18.64;100.00
18850;BME280;4989;48.772;9.154;2023-05-09T07:57:39;97998.06;;;18.89;100.00
18850;BME280;4989;48.772;9.154;2023-05-09T08:02:42;97992.34;;;19.07;100.00
18850;BME280;4989;48.772;9.154;2023-05-09T08:07:44;97979.75;;;19.77;100.00
18850;BME280;4989;48.772;9.154;2023-05-09T08:12:47;97963.31;;;19.88;96.91
18850;BME280;4989;48.772;9.154;2023-05-09T08:17:50;97949.53;;;19.67;100.00
18850;BME280;4989;48.772;9.154;2023-05-09T08:22:52;97947.81;;;20.48;94.83
18850;BME280;4989;48.772;9.154;2023-05-09T08:27:55;97945.53;;;21.59;87.64
18850;BME280;4989;48.772;9.154;2023-05-09T08:32:57;97938.94;;;21.50;86.10
18850;BME280;4989;48.772;9.154;2023-05-09T08:37:59;97937.16;;;22.35;81.48
18850;BME280;4989;48.772;9.154;2023-05-09T08:43:05;97915.25;;;22.32;82.53
18850;BME280;4989;48.772;9.154;2023-05-09T08:48:08;97918.84;;;21.50;87.01
18850;BME280;4989;48.772;9.154;2023-05-09T08:53:11;97918.19;;;21.23;88.80
18850;BME280;4989;48.772;9.154;2023-05-09T08:58:15;97919.56;;;20.33;96.60
18850;BME280;4989;48.772;9.154;2023-05-09T09:03:20;97918.47;;;20.51;98.94
18850;BME280;4989;48.772;9.154;2023-05-09T09:08:24;97924.22;;;21.87;86.77
18850;BME280;4989;48.772;9.154;2023-05-09T09:13:28;97911.44;;;22.74;80.17
18850;BME280;4989;48.772;9.154;2023-05-09T09:18:34;97905.88;;;22.85;77.50
18850;BME280;4989;48.772;9.154;2023-05-09T09:23:38;97893.56;;;22.70;78.32
18850;BME280;4989;48.772;9.154;2023-05-09T09:28:42;97895.28;;;22.00;80.12
18850;BME280;4989;48.772;9.154;2023-05-09T09:33:44;97884.38;;;21.51;83.21
18850;BME280;4989;48.772;9.154;2023-05-09T09:38:46;97874.22;;;20.77;88.51
18850;BME280;4989;48.772;9.154;2023-05-09T09:43:48;97863.22;;;20.51;90.93
18850;BME280;4989;48.772;9.154;2023-05-09T09:48:51;97859.88;;;20.67;90.81
18850;BME280;4989;48.772;9.154;2023-05-09T09:54:02;97848.66;;;20.82;88.15
18850;BME280;4989;48.772;9.154;2023-05-09T09:59:17;97834.72;;;21.14;88.58
18850;BME280;4989;48.772;9.154;2023-05-09T10:04:20;97828.91;;;22.33;81.90
18850;BME280;4989;48.772;9.154;2023-05-09T10:09:25;97826.34;;;21.68;84.77
18850;BME280;4989;48.772;9.154;2023-05-09T10:14:31;97812.25;;;21.77;82.93
18850;BME280;4989;48.772;9.154;2023-05-09T10:19:41;97802.38;;;24.07;75.18
18850;BME280;4989;48.772;9.154;2023-05-09T10:30:08;97790.28;;;23.33;72.40
18850;BME280;4989;48.772;9.154;2023-05-09T10:35:16;97791.66;;;23.51;74.53
18850;BME280;4989;48.772;9.154;2023-05-09T10:40:20;97772.88;;;24.29;72.11
18850;BME280;4989;48.772;9.154;2023-05-09T10:45:23;97771.16;;;24.26;72.12
18850;BME280;4989;48.772;9.154;2023-05-09T10:50:25;97762.94;;;23.84;73.97
18850;BME280;4989;48.772;9.154;2023-05-09T10:55:53;97751.78;;;25.77;66.70
18850;BME280;4989;48.772;9.154;2023-05-09T11:00:59;97743.53;;;26.97;60.97
18850;BME280;4989;48.772;9.154;2023-05-09T11:06:02;97741.19;;;26.74;59.14
18850;BME280;4989;48.772;9.154;2023-05-09T11:11:06;97716.81;;;27.77;57.21
18850;BME280;4989;48.772;9.154;2023-05-09T11:16:10;97712.91;;;25.39;62.60
18850;BME280;4989;48.772;9.154;2023-05-09T11:21:13;97699.81;;;26.25;61.32
18850;BME280;4989;48.772;9.154;2023-05-09T11:26:20;97694.16;;;25.72;64.60
18850;BME280;4989;48.772;9.154;2023-05-09T11:31:23;97682.22;;;27.38;57.68
18850;BME280;4989;48.772;9.154;2023-05-09T11:36:26;97669.25;;;26.59;56.85
18850;BME280;4989;48.772;9.154;2023-05-09T11:41:47;97662.06;;;27.32;53.87
18850;BME280;4989;48.772;9.154;2023-05-09T11:46:50;97655.97;;;26.12;58.32
18850;BME280;4989;48.772;9.154;2023-05-09T11:51:52;97656.94;;;26.15;56.92
18850;BME280;4989;48.772;9.154;2023-05-09T11:56:57;97641.66;;;27.03;55.06
18850;BME280;4989;48.772;9.154;2023-05-09T12:02:05;97623.44;;;26.68;53.88
18850;BME280;4989;48.772;9.154;2023-05-09T12:07:10;97615.97;;;27.89;54.62
18850;BME280;4989;48.772;9.154;2023-05-09T12:12:13;97615.94;;;28.61;53.05
18850;BME280;4989;48.772;9.154;2023-05-09T12:17:16;97605.66;;;27.55;52.26
18850;BME280;4989;48.772;9.154;2023-05-09T12:22:18;97600.28;;;27.57;50.90
18850;BME280;4989;48.772;9.154;2023-05-09T12:27:22;97593.47;;;27.03;51.05
18850;BME280;4989;48.772;9.154;2023-05-09T12:32:28;97581.38;;;25.52;54.75
18850;BME280;4989;48.772;9.154;2023-05-09T12:37:33;97580.81;;;25.40;56.20
18850;BME280;4989;48.772;9.154;2023-05-09T12:42:36;97566.47;;;23.71;61.10
18850;BME280;4989;48.772;9.154;2023-05-09T12:47:38;97560.50;;;24.81;58.36
18850;BME280;4989;48.772;9.154;2023-05-09T12:52:42;97549.28;;;24.73;58.25
18850;BME280;4989;48.772;9.154;2023-05-09T12:58:04;97542.41;;;24.42;57.56
18850;BME280;4989;48.772;9.154;2023-05-09T13:03:26;97532.16;;;24.31;59.01
18850;BME280;4989;48.772;9.154;2023-05-09T13:08:31;97530.50;;;24.22;58.45
18850;BME280;4989;48.772;9.154;2023-05-09T13:13:34;97517.44;;;24.17;58.59
18850;BME280;4989;48.772;9.154;2023-05-09T13:18:36;97507.97;;;23.69;59.32
18850;BME280;4989;48.772;9.154;2023-05-09T13:23:38;97492.25;;;23.28;62.22
18850;BME280;4989;48.772;9.154;2023-05-09T13:28:42;97494.88;;;23.64;61.49
18850;BME280;4989;48.772;9.154;2023-05-09T13:33:44;97485.31;;;23.84;62.19
18850;BME280;4989;48.772;9.154;2023-05-09T13:38:47;97480.38;;;23.77;62.60
18850;BME280;4989;48.772;9.154;2023-05-09T13:43:50;97466.78;;;24.11;62.83
18850;BME280;4989;48.772;9.154;2023-05-09T13:48:52;97467.53;;;23.30;62.85
18850;BME280;4989;48.772;9.154;2023-05-09T13:53:55;97457.31;;;22.90;64.00
18850;BME280;4989;48.772;9.154;2023-05-09T13:58:57;97452.47;;;22.66;66.53
18850;BME280;4989;48.772;9.154;2023-05-09T14:04:00;97447.25;;;22.86;64.59
18850;BME280;4989;48.772;9.154;2023-05-09T14:09:02;97448.50;;;22.91;62.84
18850;BME280;4989;48.772;9.154;2023-05-09T14:14:04;97435.63;;;22.33;65.39
18850;BME280;4989;48.772;9.154;2023-05-09T14:19:07;97424.91;;;22.18;66.54
18850;BME280;4989;48.772;9.154;2023-05-09T14:24:10;97418.34;;;22.82;65.95
18850;BME280;4989;48.772;9.154;2023-05-09T14:29:16;97423.00;;;22.93;63.95
18850;BME280;4989;48.772;9.154;2023-05-09T14:34:18;97419.16;;;22.47;66.95
18850;BME280;4989;48.772;9.154;2023-05-09T14:39:20;97422.81;;;22.30;69.26
18850;BME280;4989;48.772;9.154;2023-05-09T14:44:23;97405.81;;;22.09;68.63
18850;BME280;4989;48.772;9.154;2023-05-09T14:49:26;97400.28;;;22.45;65.34
18850;BME280;4989;48.772;9.154;2023-05-09T14:54:28;97395.88;;;22.85;63.17
18850;BME280;4989;48.772;9.154;2023-05-09T14:59:30;97391.25;;;21.62;66.93
18850;BME280;4989;48.772;9.154;2023-05-09T15:04:34;97376.66;;;21.67;67.64
18850;BME280;4989;48.772;9.154;2023-05-09T15:09:36;97375.88;;;22.68;63.94
18850;BME280;4989;48.772;9.154;2023-05-09T15:14:39;97365.59;;;22.63;62.73
18850;BME280;4989;48.772;9.154;2023-05-09T15:19:41;97360.81;;;22.88;65.87
18850;BME280;4989;48.772;9.154;2023-05-09T15:24:43;97357.19;;;22.99;64.64
18850;BME280;4989;48.772;9.154;2023-05-09T15:29:46;97341.72;;;23.28;61.33
18850;BME280;4989;48.772;9.154;2023-05-09T15:34:48;97338.03;;;23.39;64.75
18850;BME280;4989;48.772;9.154;2023-05-09T15:39:51;97338.41;;;23.29;63.97
18850;BME280;4989;48.772;9.154;2023-05-09T15:44:53;97323.34;;;23.06;63.63
18850;BME280;4989;48.772;9.154;2023-05-09T15:49:55;97330.63;;;22.84;66.90
18850;BME280;4989;48.772;9.154;2023-05-09T15:54:58;97320.97;;;22.91;64.01
18850;BME280;4989;48.772;9.154;2023-05-09T16:00:00;97318.19;;;22.97;66.56
18850;BME280;4989;48.772;9.154;2023-05-09T16:05:13;97309.50;;;23.06;73.43
18850;BME280;4989;48.772;9.154;2023-05-09T16:10:15;97310.31;;;22.76;64.48
18850;BME280;4989;48.772;9.154;2023-05-09T16:15:18;97299.38;;;22.84;73.06
18850;BME280;4989;48.772;9.154;2023-05-09T16:20:20;97301.41;;;22.83;66.57
18850;BME280;4989;48.772;9.154;2023-05-09T16:25:23;97296.22;;;22.74;66.67
18850;BME280;4989;48.772;9.154;2023-05-09T16:30:25;97283.75;;;22.62;72.20
18850;BME280;4989;48.772;9.154;2023-05-09T16:35:27;97276.31;;;22.76;70.53
18850;BME280;4989;48.772;9.154;2023-05-09T16:40:30;97274.97;;;22.82;68.96
18850;BME280;4989;48.772;9.154;2023-05-09T16:45:32;97269.25;;;22.75;74.63
18850;BME280;4989;48.772;9.154;2023-05-09T16:50:34;97262.06;;;22.66;67.29
18850;BME280;4989;48.772;9.154;2023-05-09T16:55:38;97268.63;;;22.63;75.17
18850;BME280;4989;48.772;9.154;2023-05-09T17:00:41;97244.38;;;22.69;75.45
18850;BME280;4989;48.772;9.154;2023-05-09T17:05:43;97256.75;;;22.68;75.55
18850;BME280;4989;48.772;9.154;2023-05-09T17:10:45;97259.81;;;22.64;78.22
18850;BME280;4989;48.772;9.154;2023-05-09T17:15:47;97269.34;;;22.45;73.17
18850;BME280;4989;48.772;9.154;2023-05-09T17:20:50;97273.00;;;22.04;74.02
18850;BME280;4989;48.772;9.154;2023-05-09T17:25:52;97286.13;;;21.67;75.97
18850;BME280;4989;48.772;9.154;2023-05-09T17:30:55;97292.47;;;21.10;76.07
18850;BME280;4989;48.772;9.154;2023-05-09T17:35:59;97297.16;;;20.45;84.35
18850;BME280;4989;48.772;9.154;2023-05-09T17:41:02;97297.47;;;19.74;92.52
18850;BME280;4989;48.772;9.154;2023-05-09T17:46:05;97307.16;;;19.36;100.00
18850;BME280;4989;48.772;9.154;2023-05-09T17:51:07;97318.69;;;19.29;100.00
18850;BME280;4989;48.772;9.154;2023-05-09T17:56:09;97326.50;;;18.82;100.00
18850;BME280;4989;48.772;9.154;2023-05-09T18:01:11;97317.41;;;18.64;100.00
18850;BME280;4989;48.772;9.154;2023-05-09T18:06:14;97319.41;;;18.69;100.00
18850;BME280;4989;48.772;9.154;2023-05-09T18:11:16;97307.13;;;18.65;100.00
18850;BME280;4989;48.772;9.154;2023-05-09T18:16:18;97320.28;;;18.44;100.00
18850;BME280;4989;48.772;9.154;2023-05-09T18:21:21;97327.03;;;18.11;100.00
18850;BME280;4989;48.772;9.154;2023-05-09T18:26:24;97337.28;;;18.11;100.00
18850;BME280;4989;48.772;9.154;2023-05-09T18:31:26;97340.50;;;18.41;100.00
18850;BME280;4989;48.772;9.154;2023-05-09T18:36:28;97345.00;;;18.75;100.00
18850;BME280;4989;48.772;9.154;2023-05-09T18:41:31;97346.94;;;18.69;100.00
18850;BME280;4989;48.772;9.154;2023-05-09T18:46:35;97343.41;;;18.63;100.00
18850;BME280;4989;48.772;9.154;2023-05-09T18:51:39;97352.88;;;18.57;100.00
18850;BME280;4989;48.772;9.154;2023-05-09T18:56:41;97352.78;;;18.77;100.00
18850;BME280;4989;48.772;9.154;2023-05-09T19:01:43;97352.03;;;18.45;100.00
18850;BME280;4989;48.772;9.154;2023-05-09T19:06:46;97357.88;;;18.21;100.00
18850;BME280;4989;48.772;9.154;2023-05-09T19:11:48;97355.53;;;18.08;100.00
18850;BME280;4989;48.772;9.154;2023-05-09T19:16:50;97354.19;;;17.98;100.00
18850;BME280;4989;48.772;9.154;2023-05-09T19:21:53;97359.31;;;17.84;100.00
18850;BME280;4989;48.772;9.154;2023-05-09T19:26:56;97367.84;;;17.87;100.00
18850;BME280;4989;48.772;9.154;2023-05-09T19:31:58;97372.81;;;17.82;100.00
18850;BME280;4989;48.772;9.154;2023-05-09T19:37:02;97379.44;;;17.09;100.00
18850;BME280;4989;48.772;9.154;2023-05-09T19:42:04;97373.97;;;17.09;100.00
18850;BME280;4989;48.772;9.154;2023-05-09T19:47:06;97373.25;;;16.93;100.00
18850;BME280;4989;48.772;9.154;2023-05-09T19:52:10;97378.75;;;16.93;100.00
18850;BME280;4989;48.772;9.154;2023-05-09T19:57:12;97380.97;;;16.89;100.00
18850;BME280;4989;48.772;9.154;2023-05-09T20:02:15;97374.28;;;16.76;100.00
18850;BME280;4989;48.772;9.154;2023-05-09T20:07:17;97374.44;;;16.72;100.00
18850;BME280;4989;48.772;9.154;2023-05-09T20:12:20;97371.63;;;16.31;100.00
18850;BME280;4989;48.772;9.154;2023-05-09T20:17:23;97373.03;;;16.12;100.00
18850;BME280;4989;48.772;9.154;2023-05-09T20:22:25;97377.78;;;15.96;100.00
18850;BME280;4989;48.772;9.154;2023-05-09T20:27:28;97378.53;;;16.12;100.00
18850;BME280;4989;48.772;9.154;2023-05-09T20:32:30;97376.38;;;16.16;100.00
18850;BME280;4989;48.772;9.154;2023-05-09T20:37:32;97380.50;;;15.96;100.00
18850;BME280;4989;48.772;9.154;2023-05-09T20:42:35;97380.41;;;16.06;100.00
18850;BME280;4989;48.772;9.154;2023-05-09T20:47:37;97377.03;;;16.11;100.00
18850;BME280;4989;48.772;9.154;2023-05-09T20:52:40;97375.88;;;16.02;100.00
18850;BME280;4989;48.772;9.154;2023-05-09T20:57:43;97369.44;;;16.06;100.00
18850;BME280;4989;48.772;9.154;2023-05-09T21:02:45;97370.09;;;16.00;100.00
18850;BME280;4989;48.772;9.154;2023-05-09T21:07:47;97369.63;;;16.17;100.00
18850;BME280;4989;48.772;9.154;2023-05-09T21:12:49;97360.03;;;15.92;100.00
18850;BME280;4989;48.772;9.154;2023-05-09T21:17:52;97363.22;;;15.90;100.00
18850;BME280;4989;48.772;9.154;2023-05-09T21:22:54;97360.94;;;16.03;100.00
18850;BME280;4989;48.772;9.154;2023-05-09T21:27:57;97357.16;;;16.16;100.00
18850;BME280;4989;48.772;9.154;2023-05-09T21:32:59;97354.69;;;15.88;100.00
18850;BME280;4989;48.772;9.154;2023-05-09T21:38:01;97351.88;;;15.83;100.00
18850;BME280;4989;48.772;9.154;2023-05-09T21:43:04;97342.78;;;15.62;100.00
18850;BME280;4989;48.772;9.154;2023-05-09T21:48:06;97346.56;;;15.79;100.00
18850;BME280;4989;48.772;9.154;2023-05-09T21:53:09;97344.63;;;15.79;100.00
18850;BME280;4989;48.772;9.154;2023-05-09T21:58:11;97344.13;;;15.81;100.00
18850;BME280;4989;48.772;9.154;2023-05-09T22:03:14;97336.91;;;15.54;100.00
18850;BME280;4989;48.772;9.154;2023-05-09T22:08:16;97345.59;;;15.52;100.00
18850;BME280;4989;48.772;9.154;2023-05-09T22:13:18;97336.78;;;15.48;100.00
18850;BME280;4989;48.772;9.154;2023-05-09T22:18:20;97337.47;;;15.43;100.00
18850;BME280;4989;48.772;9.154;2023-05-09T22:23:23;97344.97;;;15.33;100.00
18850;BME280;4989;48.772;9.154;2023-05-09T22:28:25;97338.75;;;15.33;100.00
18850;BME280;4989;48.772;9.154;2023-05-09T22:33:28;97335.38;;;15.38;100.00
18850;BME280;4989;48.772;9.154;2023-05-09T22:38:30;97338.03;;;15.47;100.00
18850;BME280;4989;48.772;9.154;2023-05-09T22:43:32;97345.31;;;15.50;100.00
18850;BME280;4989;48.772;9.154;2023-05-09T22:48:40;97344.47;;;15.59;100.00
18850;BME280;4989;48.772;9.154;2023-05-09T22:53:42;97354.97;;;16.20;100.00
18850;BME280;4989;48.772;9.154;2023-05-09T22:58:44;97343.66;;;16.47;100.00
18850;BME280;4989;48.772;9.154;2023-05-09T23:03:47;97354.28;;;16.75;100.00
18850;BME280;4989;48.772;9.154;2023-05-09T23:08:49;97348.84;;;16.25;100.00
18850;BME280;4989;48.772;9.154;2023-05-09T23:13:52;97343.13;;;15.54;100.00
18850;BME280;4989;48.772;9.154;2023-05-09T23:18:54;97357.50;;;15.49;100.00
18850;BME280;4989;48.772;9.154;2023-05-09T23:23:57;97353.53;;;15.65;100.00
18850;BME280;4989;48.772;9.154;2023-05-09T23:28:59;97350.50;;;15.48;100.00
18850;BME280;4989;48.772;9.154;2023-05-09T23:34:01;97344.59;;;15.26;100.00
18850;BME280;4989;48.772;9.154;2023-05-09T23:39:04;97347.28;;;15.11;100.00
18850;BME280;4989;48.772;9.154;2023-05-09T23:44:06;97347.19;;;15.05;100.00
18850;BME280;4989;48.772;9.154;2023-05-09T23:49:08;97348.00;;;14.97;100.00
18850;BME280;4989;48.772;9.154;2023-05-09T23:54:11;97355.44;;;15.59;100.00
18850;BME280;4989;48.772;9.154;2023-05-09T23:59:13;97361.69;;;16.69;100.00
